createdAt,value
2017-10-31T00:00:39.251Z,89.42
2017-10-31T00:01:39.238Z,88.85
2017-10-31T00:02:39.201Z,88.85
2017-10-31T00:03:39.415Z,89.04
2017-10-31T00:04:39.138Z,89.23
2017-10-31T00:05:39.118Z,89.61
2017-10-31T00:06:39.085Z,89.33
2017-10-31T00:07:39.052Z,89.52
2017-10-31T00:08:39.024Z,88.95
2017-10-31T00:09:39.002Z,88.47
2017-10-31T00:10:38.974Z,88.67
2017-10-31T00:11:38.948Z,88.09
2017-10-31T00:12:38.916Z,88.09
2017-10-31T00:13:38.888Z,87.71
2017-10-31T00:14:38.861Z,88.47
2017-10-31T00:15:38.834Z,88.09
2017-10-31T00:16:38.803Z,87.62
2017-10-31T00:17:38.775Z,87.43
2017-10-31T00:18:38.751Z,86.29
2017-10-31T00:19:38.718Z,86.29
2017-10-31T00:20:38.694Z,86.10
2017-10-31T00:21:38.671Z,86.05
2017-10-31T00:22:38.640Z,85.43
2017-10-31T00:23:38.613Z,86.10
2017-10-31T00:24:38.591Z,85.49
2017-10-31T00:25:38.551Z,85.49
2017-10-31T00:26:38.780Z,85.53
2017-10-31T00:27:38.498Z,85.49
2017-10-31T00:28:38.471Z,84.72
2017-10-31T00:29:38.443Z,84.72
2017-10-31T00:30:38.416Z,84.29
2017-10-31T00:31:38.391Z,84.91
2017-10-31T00:32:38.664Z,84.58
2017-10-31T00:33:38.344Z,84.91
2017-10-31T00:34:38.306Z,85.49
2017-10-31T00:35:38.272Z,84.25
2017-10-31T00:36:38.250Z,84.82
2017-10-31T00:37:38.217Z,84.58
2017-10-31T00:38:38.445Z,84.53
2017-10-31T00:39:38.171Z,84.77
2017-10-31T00:40:38.133Z,85.01
2017-10-31T00:41:38.105Z,85.05
2017-10-31T00:42:38.091Z,84.39
2017-10-31T00:43:38.058Z,84.77
2017-10-31T00:44:38.027Z,85.43
2017-10-31T00:45:37.998Z,85.05
2017-10-31T00:46:37.964Z,84.86
2017-10-31T00:47:37.935Z,85.30
2017-10-31T00:48:37.910Z,84.63
2017-10-31T00:49:37.901Z,85.53
2017-10-31T00:50:38.163Z,86.00
2017-10-31T00:51:37.834Z,85.81
2017-10-31T00:52:37.802Z,86.00
2017-10-31T00:53:37.768Z,86.47
2017-10-31T00:54:37.748Z,87.34
2017-10-31T00:55:37.723Z,87.43
2017-10-31T00:56:37.986Z,87.81
2017-10-31T00:57:37.663Z,87.81
2017-10-31T00:58:37.631Z,87.52
2017-10-31T00:59:37.607Z,87.34
2017-10-31T01:00:37.576Z,87.34
2017-10-31T01:01:37.545Z,87.34
2017-10-31T01:02:37.766Z,87.34
2017-10-31T01:03:37.495Z,86.86
2017-10-31T01:04:37.467Z,87.05
2017-10-31T01:05:37.434Z,86.95
2017-10-31T01:06:37.412Z,87.05
2017-10-31T01:07:37.375Z,86.95
2017-10-31T01:08:37.698Z,87.34
2017-10-31T01:09:37.324Z,87.14
2017-10-31T01:10:37.295Z,87.05
2017-10-31T01:11:37.277Z,87.14
2017-10-31T01:12:37.242Z,86.67
2017-10-31T01:13:37.213Z,87.71
2017-10-31T01:14:37.187Z,87.81
2017-10-31T01:15:37.154Z,87.71
2017-10-31T01:16:37.128Z,87.62
2017-10-31T01:17:37.104Z,87.81
2017-10-31T01:18:37.070Z,87.62
2017-10-31T01:19:37.044Z,86.86
2017-10-31T01:20:37.032Z,87.43
2017-10-31T01:21:36.985Z,86.95
2017-10-31T01:22:36.965Z,87.62
2017-10-31T01:23:36.937Z,87.24
2017-10-31T01:24:36.913Z,87.05
2017-10-31T01:25:36.881Z,87.52
2017-10-31T01:26:36.848Z,87.90
2017-10-31T01:27:36.822Z,87.71
2017-10-31T01:28:36.795Z,87.71
2017-10-31T01:29:36.769Z,87.14
2017-10-31T01:30:36.737Z,87.52
2017-10-31T01:31:36.712Z,87.52
2017-10-31T01:32:36.684Z,86.86
2017-10-31T01:33:36.658Z,86.86
2017-10-31T01:34:36.629Z,86.57
2017-10-31T01:35:36.601Z,86.19
2017-10-31T01:36:36.574Z,86.19
2017-10-31T01:37:36.897Z,85.24
2017-10-31T01:38:36.516Z,85.15
2017-10-31T01:39:36.488Z,85.05
2017-10-31T01:40:36.461Z,85.43
2017-10-31T01:41:36.434Z,84.95
2017-10-31T01:42:36.414Z,84.77
2017-10-31T01:43:36.626Z,84.20
2017-10-31T01:44:36.349Z,83.53
2017-10-31T01:45:36.325Z,83.34
2017-10-31T01:46:36.300Z,83.44
2017-10-31T01:47:36.265Z,83.44
2017-10-31T01:48:36.239Z,83.06
2017-10-31T01:49:36.209Z,83.15
2017-10-31T01:50:36.185Z,83.06
2017-10-31T01:51:36.151Z,82.58
2017-10-31T01:52:36.132Z,83.06
2017-10-31T01:53:36.104Z,83.06
2017-10-31T01:54:36.075Z,82.87
2017-10-31T01:55:36.295Z,83.06
2017-10-31T01:56:36.012Z,82.77
2017-10-31T01:57:35.993Z,82.45
2017-10-31T01:58:35.963Z,82.58
2017-10-31T01:59:35.933Z,82.10
2017-10-31T02:00:35.907Z,81.92
2017-10-31T02:01:35.874Z,82.39
2017-10-31T02:02:35.851Z,81.44
2017-10-31T02:03:35.821Z,81.63
2017-10-31T02:04:35.795Z,81.73
2017-10-31T02:05:35.769Z,81.44
2017-10-31T02:06:35.987Z,80.87
2017-10-31T02:07:35.707Z,80.68
2017-10-31T02:08:35.688Z,81.25
2017-10-31T02:09:35.655Z,82.10
2017-10-31T02:10:35.630Z,81.30
2017-10-31T02:11:35.612Z,82.29
2017-10-31T02:12:35.876Z,82.77
2017-10-31T02:13:35.542Z,82.87
2017-10-31T02:14:35.516Z,82.39
2017-10-31T02:15:35.497Z,82.68
2017-10-31T02:16:35.469Z,82.77
2017-10-31T02:17:35.427Z,83.25
2017-10-31T02:18:35.403Z,83.15
2017-10-31T02:19:35.379Z,83.44
2017-10-31T02:20:35.352Z,83.91
2017-10-31T02:21:35.315Z,83.72
2017-10-31T02:22:35.291Z,84.20
2017-10-31T02:23:35.265Z,83.62
2017-10-31T02:24:35.236Z,83.53
2017-10-31T02:25:35.205Z,83.44
2017-10-31T02:26:35.180Z,83.82
2017-10-31T02:27:35.157Z,83.72
2017-10-31T02:28:35.121Z,83.72
2017-10-31T02:29:35.103Z,83.11
2017-10-31T02:30:35.316Z,82.73
2017-10-31T02:31:35.036Z,83.91
2017-10-31T02:32:35.012Z,83.34
2017-10-31T02:33:34.992Z,84.39
2017-10-31T02:34:34.957Z,85.62
2017-10-31T02:35:34.925Z,85.05
2017-10-31T02:36:34.897Z,85.62
2017-10-31T02:37:34.869Z,85.49
2017-10-31T02:38:34.841Z,86.10
2017-10-31T02:39:34.821Z,85.81
2017-10-31T02:40:34.794Z,86.29
2017-10-31T02:41:34.765Z,86.10
2017-10-31T02:42:34.734Z,87.05
2017-10-31T02:43:34.712Z,86.57
2017-10-31T02:44:34.678Z,86.76
2017-10-31T02:45:34.653Z,86.19
2017-10-31T02:46:34.623Z,86.10
2017-10-31T02:47:34.891Z,85.81
2017-10-31T02:48:34.572Z,86.19
2017-10-31T02:49:34.538Z,86.38
2017-10-31T02:50:34.511Z,86.67
2017-10-31T02:51:34.483Z,86.19
2017-10-31T02:52:34.458Z,86.19
2017-10-31T02:53:34.778Z,86.86
2017-10-31T02:54:34.397Z,87.24
2017-10-31T02:55:34.371Z,87.52
2017-10-31T02:56:34.342Z,88.19
2017-10-31T02:57:34.321Z,87.81
2017-10-31T02:58:34.287Z,88.47
2017-10-31T02:59:34.513Z,89.04
2017-10-31T03:00:34.237Z,88.76
2017-10-31T03:01:34.201Z,88.57
2017-10-31T03:02:34.174Z,87.62
2017-10-31T03:03:34.158Z,87.14
2017-10-31T03:04:34.116Z,87.71
2017-10-31T03:05:34.093Z,87.52
2017-10-31T03:06:34.068Z,86.95
2017-10-31T03:07:34.040Z,86.38
2017-10-31T03:08:34.009Z,86.86
2017-10-31T03:09:33.993Z,86.57
2017-10-31T03:10:33.952Z,86.95
2017-10-31T03:11:34.178Z,86.95
2017-10-31T03:12:33.897Z,87.62
2017-10-31T03:13:33.877Z,87.90
2017-10-31T03:14:33.844Z,87.81
2017-10-31T03:15:33.814Z,87.24
2017-10-31T03:16:33.783Z,87.52
2017-10-31T03:17:33.757Z,87.62
2017-10-31T03:18:33.729Z,87.81
2017-10-31T03:19:33.702Z,88.09
2017-10-31T03:20:33.677Z,87.90
2017-10-31T03:21:33.646Z,88.09
2017-10-31T03:22:33.622Z,87.76
2017-10-31T03:23:33.939Z,87.81
2017-10-31T03:24:33.561Z,87.67
2017-10-31T03:25:33.537Z,87.90
2017-10-31T03:26:33.509Z,87.71
2017-10-31T03:27:33.478Z,86.76
2017-10-31T03:28:33.452Z,86.57
2017-10-31T03:29:33.423Z,86.67
2017-10-31T03:30:33.405Z,86.76
2017-10-31T03:31:33.367Z,86.29
2017-10-31T03:32:33.343Z,85.72
2017-10-31T03:33:33.313Z,85.62
2017-10-31T03:34:33.548Z,85.91
2017-10-31T03:35:33.256Z,86.10
2017-10-31T03:36:33.227Z,85.62
2017-10-31T03:37:33.203Z,85.91
2017-10-31T03:38:33.173Z,85.53
2017-10-31T03:39:33.142Z,85.62
2017-10-31T03:40:33.118Z,85.34
2017-10-31T03:41:33.087Z,85.34
2017-10-31T03:42:33.062Z,87.05
2017-10-31T03:43:33.033Z,86.47
2017-10-31T03:44:33.005Z,86.57
2017-10-31T03:45:32.978Z,86.57
2017-10-31T03:46:32.950Z,86.76
2017-10-31T03:47:32.925Z,86.57
2017-10-31T03:48:32.901Z,85.81
2017-10-31T03:49:32.868Z,85.91
2017-10-31T03:50:32.845Z,86.19
2017-10-31T03:51:32.815Z,86.00
2017-10-31T03:52:32.784Z,86.15
2017-10-31T03:53:32.756Z,87.48
2017-10-31T03:54:32.740Z,87.34
2017-10-31T03:55:32.700Z,87.43
2017-10-31T03:56:32.679Z,88.05
2017-10-31T03:57:32.640Z,88.05
2017-10-31T03:58:32.865Z,88.38
2017-10-31T03:59:32.597Z,88.47
2017-10-31T04:00:32.561Z,88.19
2017-10-31T04:01:32.538Z,87.95
2017-10-31T04:02:32.506Z,88.76
2017-10-31T04:03:32.476Z,88.67
2017-10-31T04:04:32.745Z,88.81
2017-10-31T04:05:32.419Z,89.09
2017-10-31T04:06:32.395Z,88.34
2017-10-31T04:07:32.363Z,88.53
2017-10-31T04:08:32.341Z,87.48
2017-10-31T04:09:32.307Z,87.19
2017-10-31T04:10:32.285Z,87.57
2017-10-31T04:11:32.256Z,86.63
2017-10-31T04:12:32.224Z,87.01
2017-10-31T04:13:32.201Z,86.63
2017-10-31T04:14:32.178Z,86.53
2017-10-31T04:15:32.144Z,86.91
2017-10-31T04:16:32.113Z,86.63
2017-10-31T04:17:32.089Z,86.72
2017-10-31T04:18:32.060Z,86.53
2017-10-31T04:19:32.029Z,87.01
2017-10-31T04:20:32.001Z,87.67
2017-10-31T04:21:31.977Z,87.38
2017-10-31T04:22:31.946Z,87.29
2017-10-31T04:23:31.919Z,87.01
2017-10-31T04:24:31.888Z,86.82
2017-10-31T04:25:31.866Z,87.01
2017-10-31T04:26:31.835Z,86.72
2017-10-31T04:27:31.804Z,86.82
2017-10-31T04:28:31.781Z,86.63
2017-10-31T04:29:31.748Z,86.15
2017-10-31T04:30:31.725Z,85.86
2017-10-31T04:31:31.689Z,85.58
2017-10-31T04:32:31.668Z,86.05
2017-10-31T04:33:31.639Z,86.15
2017-10-31T04:34:31.613Z,86.43
2017-10-31T04:35:31.581Z,86.05
2017-10-31T04:36:31.724Z,86.24
2017-10-31T04:37:31.531Z,86.43
2017-10-31T04:38:31.504Z,86.24
2017-10-31T04:39:31.473Z,86.05
2017-10-31T04:40:31.443Z,86.34
2017-10-31T04:41:31.414Z,85.58
2017-10-31T04:42:31.389Z,86.05
2017-10-31T04:43:31.360Z,85.77
2017-10-31T04:44:31.633Z,85.58
2017-10-31T04:45:31.305Z,86.15
2017-10-31T04:46:31.275Z,85.86
2017-10-31T04:47:31.243Z,85.77
2017-10-31T04:48:31.218Z,84.44
2017-10-31T04:49:31.190Z,83.87
2017-10-31T04:50:31.427Z,83.68
2017-10-31T04:51:31.149Z,83.11
2017-10-31T04:52:31.105Z,82.54
2017-10-31T04:53:31.082Z,82.73
2017-10-31T04:54:31.047Z,81.78
2017-10-31T04:55:31.023Z,81.12
2017-10-31T04:56:31.741Z,81.49
2017-10-31T04:57:30.969Z,81.02
2017-10-31T04:58:30.937Z,80.74
2017-10-31T04:59:30.906Z,79.97
2017-10-31T05:00:30.889Z,80.55
2017-10-31T05:01:30.853Z,80.64
2017-10-31T05:02:31.071Z,80.26
2017-10-31T05:03:30.797Z,80.16
2017-10-31T05:04:30.785Z,80.16
2017-10-31T05:05:30.738Z,79.88
2017-10-31T05:06:30.712Z,79.79
2017-10-31T05:07:30.684Z,79.41
2017-10-31T05:08:30.656Z,79.41
2017-10-31T05:09:30.630Z,78.64
2017-10-31T05:10:30.631Z,79.60
2017-10-31T05:11:30.572Z,79.31
2017-10-31T05:12:30.561Z,78.36
2017-10-31T05:13:30.513Z,78.45
2017-10-31T05:14:30.791Z,77.79
2017-10-31T05:15:30.458Z,77.70
2017-10-31T05:16:30.432Z,76.93
2017-10-31T05:17:30.401Z,76.65
2017-10-31T05:18:30.373Z,77.51
2017-10-31T05:19:30.355Z,76.84
2017-10-31T05:20:30.617Z,76.93
2017-10-31T05:21:30.289Z,77.03
2017-10-31T05:22:30.262Z,77.12
2017-10-31T05:23:30.244Z,77.03
2017-10-31T05:24:30.208Z,76.93
2017-10-31T05:25:30.181Z,76.84
2017-10-31T05:26:30.398Z,77.12
2017-10-31T05:27:30.122Z,76.65
2017-10-31T05:28:30.095Z,76.27
2017-10-31T05:29:30.066Z,75.99
2017-10-31T05:30:30.042Z,75.89
2017-10-31T05:31:30.012Z,75.42
2017-10-31T05:32:29.984Z,75.60
2017-10-31T05:33:29.954Z,74.66
2017-10-31T05:34:29.927Z,74.56
2017-10-31T05:35:29.898Z,73.23
2017-10-31T05:36:29.873Z,72.56
2017-10-31T05:37:29.847Z,71.90
2017-10-31T05:38:29.817Z,72.56
2017-10-31T05:39:29.788Z,72.38
2017-10-31T05:40:29.762Z,72.09
2017-10-31T05:41:29.727Z,72.66
2017-10-31T05:42:29.701Z,73.61
2017-10-31T05:43:29.670Z,72.38
2017-10-31T05:44:29.951Z,72.75
2017-10-31T05:45:29.620Z,72.38
2017-10-31T05:46:29.591Z,72.47
2017-10-31T05:47:29.564Z,72.75
2017-10-31T05:48:29.535Z,72.47
2017-10-31T05:49:29.531Z,72.19
2017-10-31T05:50:29.726Z,72.75
2017-10-31T05:51:29.453Z,73.33
2017-10-31T05:52:29.425Z,73.33
2017-10-31T05:53:29.400Z,73.42
2017-10-31T05:54:29.369Z,72.38
2017-10-31T05:55:29.693Z,70.95
2017-10-31T05:56:29.310Z,70.29
2017-10-31T05:57:29.276Z,68.29
2017-10-31T05:58:29.253Z,67.34
2017-10-31T05:59:29.233Z,66.58
2017-10-31T06:00:29.202Z,66.30
2017-10-31T06:01:29.167Z,66.01
2017-10-31T06:02:29.138Z,66.30
2017-10-31T06:03:29.113Z,65.16
2017-10-31T06:04:29.083Z,64.78
2017-10-31T06:05:29.059Z,64.69
2017-10-31T06:06:29.024Z,64.69
2017-10-31T06:07:29.252Z,64.21
2017-10-31T06:08:28.973Z,63.35
2017-10-31T06:09:28.944Z,63.07
2017-10-31T06:10:28.917Z,62.59
2017-10-31T06:11:28.890Z,62.31
2017-10-31T06:12:28.867Z,61.93
2017-10-31T06:13:29.190Z,61.83
2017-10-31T06:14:28.800Z,61.65
2017-10-31T06:15:28.779Z,60.79
2017-10-31T06:16:28.748Z,60.69
2017-10-31T06:17:28.720Z,60.60
2017-10-31T06:18:28.693Z,60.60
2017-10-31T06:19:28.665Z,59.46
2017-10-31T06:20:28.632Z,58.80
2017-10-31T06:21:28.615Z,58.61
2017-10-31T06:22:28.584Z,58.22
2017-10-31T06:23:28.549Z,57.37
2017-10-31T06:24:28.524Z,56.32
2017-10-31T06:25:28.496Z,55.47
2017-10-31T06:26:28.473Z,54.71
2017-10-31T06:27:28.440Z,54.14
2017-10-31T06:28:28.418Z,54.71
2017-10-31T06:29:28.384Z,54.61
2017-10-31T06:30:28.618Z,54.71
2017-10-31T06:31:28.329Z,54.24
2017-10-31T06:32:28.299Z,54.52
2017-10-31T06:33:28.275Z,54.61
2017-10-31T06:34:28.252Z,54.90
2017-10-31T06:35:28.214Z,53.09
2017-10-31T06:36:28.502Z,52.72
2017-10-31T06:37:28.397Z,52.53
2017-10-31T06:38:28.130Z,52.53
2017-10-31T06:39:28.109Z,53.00
2017-10-31T06:40:28.083Z,53.28
2017-10-31T06:41:28.048Z,54.05
2017-10-31T06:42:28.020Z,54.14
2017-10-31T06:43:27.989Z,54.33
2017-10-31T06:44:27.964Z,55.76
2017-10-31T06:45:27.935Z,56.04
2017-10-31T06:46:27.908Z,55.28
2017-10-31T06:47:27.881Z,55.37
2017-10-31T06:48:27.847Z,55.97
2017-10-31T06:49:27.827Z,55.02
2017-10-31T06:50:27.793Z,56.45
2017-10-31T06:51:27.766Z,58.54
2017-10-31T06:52:27.736Z,60.16
2017-10-31T06:53:27.716Z,61.83
2017-10-31T06:54:27.987Z,63.29
2017-10-31T06:55:27.658Z,65.16
2017-10-31T06:56:27.628Z,65.38
2017-10-31T06:57:27.599Z,65.19
2017-10-31T06:58:27.574Z,66.24
2017-10-31T06:59:27.549Z,66.39
2017-10-31T07:00:27.515Z,66.49
2017-10-31T07:01:27.491Z,66.61
2017-10-31T07:02:27.463Z,66.71
2017-10-31T07:03:27.437Z,66.42
2017-10-31T07:04:27.411Z,66.61
2017-10-31T07:05:27.373Z,65.76
2017-10-31T07:06:27.598Z,65.67
2017-10-31T07:07:27.317Z,65.38
2017-10-31T07:08:27.293Z,65.57
2017-10-31T07:09:27.269Z,66.33
2017-10-31T07:10:27.234Z,66.33
2017-10-31T07:11:27.205Z,66.14
2017-10-31T07:12:27.432Z,66.52
2017-10-31T07:13:27.167Z,65.95
2017-10-31T07:14:27.127Z,65.76
2017-10-31T07:15:27.099Z,65.47
2017-10-31T07:16:27.069Z,65.67
2017-10-31T07:17:27.054Z,65.76
2017-10-31T07:18:27.019Z,66.61
2017-10-31T07:19:26.985Z,66.61
2017-10-31T07:20:26.964Z,67.47
2017-10-31T07:21:26.932Z,68.04
2017-10-31T07:22:26.906Z,68.13
2017-10-31T07:23:26.876Z,67.66
2017-10-31T07:24:26.851Z,68.23
2017-10-31T07:25:26.825Z,68.04
2017-10-31T07:26:26.793Z,68.80
2017-10-31T07:27:26.772Z,71.08
2017-10-31T07:28:26.734Z,70.99
2017-10-31T07:29:26.711Z,72.22
2017-10-31T07:30:26.684Z,72.99
2017-10-31T07:31:26.655Z,72.99
2017-10-31T07:32:26.631Z,73.18
2017-10-31T07:33:26.600Z,73.27
2017-10-31T07:34:26.574Z,73.93
2017-10-31T07:35:26.796Z,73.36
2017-10-31T07:36:26.516Z,73.65
2017-10-31T07:37:26.492Z,73.36
2017-10-31T07:38:26.464Z,72.89
2017-10-31T07:39:26.433Z,73.46
2017-10-31T07:40:26.406Z,73.27
2017-10-31T07:41:26.637Z,73.65
2017-10-31T07:42:26.351Z,73.46
2017-10-31T07:43:26.325Z,73.27
2017-10-31T07:44:26.299Z,73.36
2017-10-31T07:45:26.269Z,72.32
2017-10-31T07:46:26.244Z,71.84
2017-10-31T07:47:26.209Z,71.66
2017-10-31T07:48:26.190Z,72.41
2017-10-31T07:49:26.158Z,72.03
2017-10-31T07:50:26.138Z,70.70
2017-10-31T07:51:26.098Z,70.32
2017-10-31T07:52:26.080Z,71.08
2017-10-31T07:53:26.347Z,70.42
2017-10-31T07:54:26.019Z,69.94
2017-10-31T07:55:25.993Z,69.75
2017-10-31T07:56:25.964Z,70.70
2017-10-31T07:57:25.936Z,72.22
2017-10-31T07:58:25.914Z,72.13
2017-10-31T07:59:25.885Z,72.79
2017-10-31T08:00:25.850Z,72.22
2017-10-31T08:01:25.836Z,71.56
2017-10-31T08:02:25.797Z,70.13
2017-10-31T08:03:25.773Z,69.75
2017-10-31T08:04:25.744Z,68.99
2017-10-31T08:05:25.724Z,68.71
2017-10-31T08:06:25.692Z,67.76
2017-10-31T08:07:25.665Z,67.09
2017-10-31T08:08:25.630Z,67.28
2017-10-31T08:09:25.604Z,66.71
2017-10-31T08:10:25.583Z,66.42
2017-10-31T08:11:25.849Z,67.69
2017-10-31T08:12:25.525Z,68.55
2017-10-31T08:13:25.491Z,69.37
2017-10-31T08:14:25.466Z,72.70
2017-10-31T08:15:25.445Z,73.88
2017-10-31T08:16:25.415Z,75.59
2017-10-31T08:17:25.383Z,75.59
2017-10-31T08:18:25.355Z,77.36
2017-10-31T08:19:25.335Z,77.97
2017-10-31T08:20:25.299Z,78.25
2017-10-31T08:21:25.289Z,79.16
2017-10-31T08:22:25.246Z,78.25
2017-10-31T08:23:25.220Z,78.50
2017-10-31T08:24:25.201Z,78.16
2017-10-31T08:25:25.175Z,78.82
2017-10-31T08:26:25.136Z,78.63
2017-10-31T08:27:25.109Z,79.39
2017-10-31T08:28:25.384Z,80.82
2017-10-31T08:29:25.061Z,81.58
2017-10-31T08:30:25.034Z,83.58
2017-10-31T08:31:25.002Z,84.81
2017-10-31T08:32:24.972Z,86.43
2017-10-31T08:33:24.951Z,86.71
2017-10-31T08:34:24.923Z,87.66
2017-10-31T08:35:24.890Z,89.28
2017-10-31T08:36:24.866Z,90.33
2017-10-31T08:37:24.845Z,91.32
2017-10-31T08:38:24.815Z,92.65
2017-10-31T08:39:24.785Z,94.89
2017-10-31T08:40:25.010Z,93.55
2017-10-31T08:41:24.736Z,94.98
2017-10-31T08:42:24.709Z,95.84
2017-10-31T08:43:24.677Z,96.69
2017-10-31T08:44:24.668Z,96.50
2017-10-31T08:45:24.624Z,96.31
2017-10-31T08:46:24.600Z,95.17
2017-10-31T08:47:24.574Z,93.94
2017-10-31T08:48:24.546Z,94.51
2017-10-31T08:49:24.522Z,94.13
2017-10-31T08:50:24.491Z,94.13
2017-10-31T08:51:24.475Z,92.61
2017-10-31T08:52:24.438Z,92.80
2017-10-31T08:53:24.421Z,93.55
2017-10-31T08:54:24.393Z,93.37
2017-10-31T08:55:24.360Z,93.65
2017-10-31T08:56:24.341Z,94.79
2017-10-31T08:57:24.312Z,95.70
2017-10-31T08:58:24.284Z,95.17
2017-10-31T08:59:24.260Z,95.79
2017-10-31T09:00:24.233Z,95.41
2017-10-31T09:01:24.206Z,97.22
2017-10-31T09:02:24.175Z,97.03
2017-10-31T09:03:24.150Z,96.65
2017-10-31T09:04:24.374Z,95.89
2017-10-31T09:05:24.101Z,96.55
2017-10-31T09:06:24.065Z,96.69
2017-10-31T09:07:24.041Z,97.13
2017-10-31T09:08:24.017Z,96.50
2017-10-31T09:09:23.991Z,96.74
2017-10-31T09:10:23.961Z,95.98
2017-10-31T09:11:23.933Z,95.94
2017-10-31T09:12:23.908Z,95.84
2017-10-31T09:13:23.882Z,96.46
2017-10-31T09:14:23.864Z,95.65
2017-10-31T09:15:23.834Z,96.36
2017-10-31T09:16:23.805Z,96.46
2017-10-31T09:17:23.785Z,96.55
2017-10-31T09:18:23.756Z,96.94
2017-10-31T09:19:23.729Z,97.31
2017-10-31T09:20:23.704Z,97.98
2017-10-31T09:21:23.670Z,97.98
2017-10-31T09:22:23.997Z,96.74
2017-10-31T09:23:23.629Z,97.69
2017-10-31T09:24:23.590Z,98.27
2017-10-31T09:25:23.580Z,98.74
2017-10-31T09:26:23.542Z,98.83
2017-10-31T09:27:23.514Z,97.69
2017-10-31T09:28:23.483Z,99.31
2017-10-31T09:29:23.458Z,99.98
2017-10-31T09:30:23.436Z,99.50
2017-10-31T09:31:23.409Z,98.83
2017-10-31T09:32:23.387Z,99.88
2017-10-31T09:33:23.352Z,99.98
2017-10-31T09:34:23.329Z,99.99
2017-10-31T09:35:23.310Z,99.99
2017-10-31T09:36:23.277Z,99.99
2017-10-31T09:37:23.253Z,99.99
2017-10-31T09:38:23.226Z,99.99
2017-10-31T09:39:23.206Z,99.99
2017-10-31T09:40:23.420Z,99.99
2017-10-31T09:41:23.155Z,99.99
2017-10-31T09:42:23.122Z,99.99
2017-10-31T09:43:23.090Z,99.99
2017-10-31T09:44:23.067Z,99.99
2017-10-31T09:45:23.043Z,99.99
2017-10-31T09:46:23.320Z,99.99
2017-10-31T09:47:22.989Z,99.99
2017-10-31T09:48:22.958Z,99.99
2017-10-31T09:49:22.931Z,99.99
2017-10-31T09:50:22.907Z,99.93
2017-10-31T09:51:22.884Z,99.93
2017-10-31T09:52:22.856Z,99.55
2017-10-31T09:53:22.828Z,99.99
2017-10-31T09:54:22.807Z,99.99
2017-10-31T09:55:22.779Z,99.99
2017-10-31T09:56:22.755Z,99.99
2017-10-31T09:57:22.736Z,99.99
2017-10-31T09:58:22.704Z,99.99
2017-10-31T09:59:22.687Z,99.99
2017-10-31T10:00:22.651Z,99.99
2017-10-31T10:01:22.625Z,99.99
2017-10-31T10:02:22.599Z,99.99
2017-10-31T10:03:22.580Z,99.99
2017-10-31T10:04:22.548Z,99.99
2017-10-31T10:05:22.520Z,99.99
2017-10-31T10:06:22.494Z,99.99
2017-10-31T10:07:22.471Z,99.99
2017-10-31T10:08:22.449Z,99.99
2017-10-31T10:09:22.669Z,99.99
2017-10-31T10:10:22.390Z,99.99
2017-10-31T10:11:22.369Z,99.99
2017-10-31T10:12:22.341Z,99.99
2017-10-31T10:13:22.314Z,99.99
2017-10-31T10:14:22.294Z,99.99
2017-10-31T10:15:22.269Z,99.99
2017-10-31T10:16:22.239Z,99.99
2017-10-31T10:17:22.210Z,99.99
2017-10-31T10:18:22.189Z,99.99
2017-10-31T10:19:22.159Z,99.99
2017-10-31T10:20:22.134Z,99.99
2017-10-31T10:21:22.115Z,99.99
2017-10-31T10:22:22.081Z,99.99
2017-10-31T10:23:22.060Z,99.99
2017-10-31T10:24:22.033Z,99.99
2017-10-31T10:25:22.015Z,99.99
2017-10-31T10:26:21.985Z,99.99
2017-10-31T10:27:21.952Z,99.99
2017-10-31T10:28:21.934Z,99.99
2017-10-31T10:29:21.902Z,99.99
2017-10-31T10:30:21.881Z,99.99
2017-10-31T10:31:21.849Z,99.99
2017-10-31T10:32:22.129Z,99.99
2017-10-31T10:33:21.802Z,99.99
2017-10-31T10:34:21.775Z,99.99
2017-10-31T10:35:21.750Z,99.99
2017-10-31T10:36:21.726Z,99.99
2017-10-31T10:37:21.701Z,99.99
2017-10-31T10:38:21.681Z,99.99
2017-10-31T10:39:21.650Z,99.99
2017-10-31T10:40:21.623Z,99.99
2017-10-31T10:41:21.604Z,99.99
2017-10-31T10:42:21.572Z,99.99
2017-10-31T10:43:21.546Z,99.99
2017-10-31T10:44:21.787Z,99.99
2017-10-31T10:45:21.510Z,99.99
2017-10-31T10:46:21.470Z,99.99
2017-10-31T10:47:21.443Z,99.99
2017-10-31T10:48:21.417Z,99.99
2017-10-31T10:49:21.400Z,99.99
2017-10-31T10:50:21.365Z,99.99
2017-10-31T10:51:21.345Z,99.99
2017-10-31T10:52:21.319Z,99.99
2017-10-31T10:53:21.287Z,99.99
2017-10-31T10:54:21.264Z,99.99
2017-10-31T10:55:21.234Z,99.99
2017-10-31T10:56:21.216Z,99.99
2017-10-31T10:57:21.183Z,99.99
2017-10-31T10:58:21.155Z,99.99
2017-10-31T10:59:21.127Z,99.99
2017-10-31T11:00:21.104Z,99.99
2017-10-31T11:01:21.077Z,99.99
2017-10-31T11:02:21.065Z,99.99
2017-10-31T11:03:21.032Z,99.99
2017-10-31T11:04:20.995Z,99.99
2017-10-31T11:05:20.971Z,99.99
2017-10-31T11:06:20.961Z,99.99
2017-10-31T11:07:20.921Z,99.99
2017-10-31T11:08:21.141Z,99.99
2017-10-31T11:09:20.873Z,99.99
2017-10-31T11:10:20.839Z,99.99
2017-10-31T11:11:20.820Z,99.99
2017-10-31T11:12:20.790Z,98.32
2017-10-31T11:13:20.765Z,98.32
2017-10-31T11:14:20.735Z,98.32
2017-10-31T11:15:20.718Z,97.17
2017-10-31T11:16:20.681Z,97.65
2017-10-31T11:17:20.658Z,96.51
2017-10-31T11:18:20.636Z,96.22
2017-10-31T11:19:20.906Z,97.74
2017-10-31T11:20:20.587Z,97.65
2017-10-31T11:21:20.552Z,99.17
2017-10-31T11:22:20.529Z,98.03
2017-10-31T11:23:20.504Z,99.27
2017-10-31T11:24:20.478Z,99.74
2017-10-31T11:25:20.705Z,98.60
2017-10-31T11:26:20.422Z,98.69
2017-10-31T11:27:20.393Z,99.99
2017-10-31T11:28:20.364Z,99.99
2017-10-31T11:29:20.348Z,99.99
2017-10-31T11:30:20.321Z,99.99
2017-10-31T11:31:20.303Z,99.99
2017-10-31T11:32:20.261Z,99.99
2017-10-31T11:33:20.236Z,99.99
2017-10-31T11:34:20.209Z,99.99
2017-10-31T11:35:20.180Z,99.99
2017-10-31T11:36:20.163Z,99.99
2017-10-31T11:37:20.683Z,99.99
2017-10-31T11:38:20.100Z,99.99
2017-10-31T11:39:20.081Z,99.99
2017-10-31T11:40:20.053Z,99.99
2017-10-31T11:41:20.023Z,99.99
2017-10-31T11:42:20.002Z,99.99
2017-10-31T11:43:20.266Z,99.55
2017-10-31T11:44:19.941Z,98.32
2017-10-31T11:45:19.913Z,97.08
2017-10-31T11:46:19.898Z,96.70
2017-10-31T11:47:19.866Z,95.27
2017-10-31T11:48:19.834Z,94.60
2017-10-31T11:49:20.063Z,93.74
2017-10-31T11:50:19.785Z,95.56
2017-10-31T11:51:19.753Z,96.41
2017-10-31T11:52:19.726Z,96.79
2017-10-31T11:53:19.704Z,95.75
2017-10-31T11:54:19.676Z,96.03
2017-10-31T11:55:19.654Z,98.03
2017-10-31T11:56:19.618Z,97.84
2017-10-31T11:57:19.602Z,96.51
2017-10-31T11:58:19.570Z,97.93
2017-10-31T11:59:19.540Z,97.27
2017-10-31T12:00:19.516Z,98.13
2017-10-31T12:01:19.492Z,96.70
2017-10-31T12:02:19.460Z,97.46
2017-10-31T12:03:19.435Z,98.69
2017-10-31T12:04:19.413Z,99.27
2017-10-31T12:05:19.390Z,99.99
2017-10-31T12:06:19.354Z,99.99
2017-10-31T12:07:19.326Z,99.99
2017-10-31T12:08:19.301Z,99.99
2017-10-31T12:09:19.279Z,99.99
2017-10-31T12:10:19.248Z,99.99
2017-10-31T12:11:19.220Z,99.99
2017-10-31T12:12:19.495Z,99.99
2017-10-31T12:13:19.173Z,99.99
2017-10-31T12:14:19.143Z,99.99
2017-10-31T12:15:19.112Z,99.99
2017-10-31T12:16:19.087Z,99.99
2017-10-31T12:17:19.062Z,99.99
2017-10-31T12:18:19.289Z,99.99
2017-10-31T12:19:19.014Z,99.99
2017-10-31T12:20:18.981Z,99.99
2017-10-31T12:21:18.959Z,99.99
2017-10-31T12:22:18.930Z,99.99
2017-10-31T12:23:18.897Z,99.99
2017-10-31T12:24:18.873Z,99.99
2017-10-31T12:25:18.850Z,99.99
2017-10-31T12:26:18.823Z,99.99
2017-10-31T12:27:18.792Z,99.99
2017-10-31T12:28:18.770Z,99.99
2017-10-31T12:29:18.743Z,99.99
2017-10-31T12:30:18.720Z,99.99
2017-10-31T12:31:18.686Z,99.99
2017-10-31T12:32:18.668Z,99.99
2017-10-31T12:33:18.653Z,99.99
2017-10-31T12:34:18.617Z,99.99
2017-10-31T12:35:18.592Z,99.99
2017-10-31T12:36:18.905Z,99.99
2017-10-31T12:37:18.531Z,99.99
2017-10-31T12:38:18.508Z,99.99
2017-10-31T12:39:18.490Z,99.99
2017-10-31T12:40:18.458Z,99.99
2017-10-31T12:41:18.428Z,99.99
2017-10-31T12:42:18.410Z,99.99
2017-10-31T12:43:18.380Z,99.99
2017-10-31T12:44:18.347Z,99.99
2017-10-31T12:45:18.331Z,99.99
2017-10-31T12:46:18.296Z,99.99
2017-10-31T12:47:18.267Z,99.99
2017-10-31T12:48:18.245Z,99.99
2017-10-31T12:49:18.225Z,99.99
2017-10-31T12:50:18.196Z,99.99
2017-10-31T12:51:18.169Z,99.99
2017-10-31T12:52:18.138Z,99.99